Share

Three Rivers, TX (78071)

RAWS GEORGE WEST TX US (MGWRT2) Elev 214 ft | 28.37 °N, 98.12 °W | Change Station

Current weather conditions updated 41 minutes ago

Overcast
Overcast
81 °F
Feels Like 81 °F
N
5
Wind Variable Wind from NW
Gusts 10.0 mph
Sunrise 7:04 AM
Sunset 7:59 PM
Moon Waning Gibbous

Tomorrow is forecast to be nearly the same temperature as today.

Pressure 30.08 in
Visibility 10.0 miles
Clouds Mostly Cloudy 6000 ft
Overcast 7000 ft
Heat Index 81 °F
Dew Point 55 °F
Humidity 41%
Rainfall 0.00 in
Snow Depth Not available.
UV 2 out of 16
Pollen 7.40 out of 12
Air Quality Not available.
Flu Activity Local Activity
METAR KBEA 182135Z AUTO 04007KT 10SM BKN060 OVC070 27/12 A3008 RMK AO2 T02690117

More Conditions Fewer Conditions

Pressure 30.08 in
Visibility 10.0 miles
Clouds Mostly Cloudy 6000 ft
Overcast 7000 ft
Heat Index 81 °F
Dew Point 55 °F
Humidity 41%
Rainfall 0.00 in
Snow Depth Not available.
UV 2 out of 16
Pollen 7.40 out of 12
Air Quality Not available.
Flu Activity Local Activity
METAR KBEA 182135Z AUTO 04007KT 10SM BKN060 OVC070 27/12 A3008 RMK AO2 T02690117

More Conditions Fewer Conditions

10-Day Weather Forecast

Almanac

Astronomy

Apr. 18, 2014 Rise Set
Actual Time 7:04 AM CDT 7:59 PM CDT
Civil Twilight 6:39 AM CDT 8:24 PM CDT
Nautical Twilight 6:11 AM CDT 8:52 PM CDT
Astronomical Twilight 5:42 AM CDT 9:22 PM CDT
Moon 11:35 PM CDT 9:38 AM CDT
Length of Visible Light 13h 44m
Length of Day
12h 55m
Tomorrow will be 1m 35s longer.
Waning Gibbous, 85% of the Moon is Illuminated
Today
Waning Gibbous
Apr 22
Last Quarter
Apr 29
New
May 6
First Quarter
May 14
Full

Today's Extremes

State Highs State Lows

Community

  • Spring Chickadee
    Spring Chickadee
  • What's for Lunch?
    What's for Lunch?
  • SUNRISE THROUGH THE TREES.
    SUNRISE THROUGH THE TREES.
  • Dog Wood Blossoms
    Dog Wood Blossoms
  • Morning Light
    Morning Light

WunderPhotos

Upload Photos

1,702,517 photos uploaded!

WunderBlogs® & News

Nearby

Snow Depth

Station Depth Elevation
No new snow has been reported.

Coastal Water Temperatures

Place Temperature
No Stations Reporting

Earthquake Activity

City Distance Mag. Time & Date
No recent earthquake activity has been reported nearby.
Minimum magnitude displayed is 2.5.

Nearby Weather Stations

Station Location Temp. Heat Index Dew Point Humidity Wind Precip. Elev Updated Type
RAWS GEORGE WEST TX, Three Rivers, TX 81 °F 81 °F 55 °F 41% NW  at  5 mph 0.00 in / hr 214 ft 4:06 PM CDT MADIS
Sunset Villas, Mathis, TX 79.2 °F 81 °F 64 °F 59% WSW  at  2.0 mph 0.00 in / hr 125 ft 4:47 PM CDT Rapid Fire
Argenta Community, Mathis, TX 77.7 °F 79 °F 58 °F 51% NNE  at  0.0 mph 0.00 in / hr 203 ft 4:47 PM CDT Rapid Fire

Show More Stations Show Fewer Stations

What do you think?

We're not finished. Please let us know what you like, what you don't like, and what you are still missing.